Time;durP1;ratioP1;P1;durP2;ratioP2;P2;SDS_P1;SDS_P2;PMS_P1;PMS_P2;Temp;Humidity;BMP_temperature;BMP_pressure;BME280_temperature;BME280_humidity;BME280_pressure;Samples;Min_cycle;Max_cycle;Signal;HPM_P1;HPM_P2
2021/06/27 00:00:16;;;;;;;10.53;8.57;;;17.40;99.90;;;;;;5033527;28;20453;-78
2021/06/27 00:02:42;;;;;;;10.87;7.83;;;17.40;99.90;;;;;;5033389;28;20483;-78
2021/06/27 00:05:12;;;;;;;10.17;8.83;;;17.40;99.90;;;;;;5033218;28;20443;-78
2021/06/27 00:07:39;;;;;;;9.07;8.17;;;17.40;99.90;;;;;;5033357;28;20466;-78
2021/06/27 00:10:09;;;;;;;9.63;8.73;;;17.30;99.90;;;;;;5033430;28;20455;-78
2021/06/27 00:12:37;;;;;;;9.27;8.27;;;17.30;99.90;;;;;;5033106;28;20458;-78
2021/06/27 00:15:06;;;;;;;11.57;8.17;;;17.30;99.90;;;;;;5033130;28;20435;-78
2021/06/27 00:17:33;;;;;;;11.77;8.77;;;17.30;99.90;;;;;;5033254;28;20467;-78
2021/06/27 00:20:00;;;;;;;9.53;7.50;;;17.20;99.90;;;;;;5032963;28;20961;-78
2021/06/27 00:22:27;;;;;;;10.27;8.70;;;17.20;99.90;;;;;;5033041;28;20467;-78
2021/06/27 00:24:53;;;;;;;9.07;8.17;;;17.10;99.90;;;;;;5033198;28;20451;-78
2021/06/27 00:27:20;;;;;;;8.83;7.87;;;17.10;99.90;;;;;;5033175;28;20466;-78
2021/06/27 00:29:48;;;;;;;8.93;7.73;;;17.10;99.90;;;;;;5033995;28;20473;-78
2021/06/27 00:32:15;;;;;;;8.83;7.93;;;17.10;99.90;;;;;;5033156;28;20461;-78
2021/06/27 00:34:42;;;;;;;11.93;9.07;;;17.00;99.90;;;;;;5032861;28;20845;-78
2021/06/27 00:37:09;;;;;;;8.90;8.00;;;17.00;99.90;;;;;;5033052;28;20470;-78
2021/06/27 00:39:36;;;;;;;8.83;7.70;;;17.00;99.90;;;;;;5033152;28;20533;-78
2021/06/27 00:42:03;;;;;;;11.23;9.43;;;16.90;99.90;;;;;;5032769;28;20451;-78
2021/06/27 00:44:30;;;;;;;13.10;9.73;;;16.90;99.90;;;;;;5032816;28;20486;-78
2021/06/27 00:46:58;;;;;;;11.90;10.13;;;16.90;99.90;;;;;;5033012;28;20459;-77
2021/06/27 00:49:25;;;;;;;11.00;9.20;;;16.80;99.90;;;;;;5032694;28;20805;-78
2021/06/27 00:51:52;;;;;;;15.70;10.80;;;16.80;99.90;;;;;;5033037;28;20521;-78
2021/06/27 00:54:18;;;;;;;12.20;9.63;;;16.70;99.90;;;;;;5032998;28;20447;-78
2021/06/27 00:56:46;;;;;;;14.70;10.23;;;16.70;99.90;;;;;;5033300;28;20466;-78
2021/06/27 00:59:13;;;;;;;9.50;8.53;;;16.70;99.90;;;;;;5036841;28;20457;-78
2021/06/27 01:01:39;;;;;;;12.70;10.00;;;16.70;99.90;;;;;;5036786;28;20446;-78
2021/06/27 01:04:07;;;;;;;10.80;8.90;;;16.70;99.90;;;;;;5036360;28;21032;-78
2021/06/27 01:06:34;;;;;;;10.70;8.90;;;16.70;99.90;;;;;;5036337;28;20446;-78
2021/06/27 01:09:01;;;;;;;9.20;7.93;;;16.70;99.90;;;;;;5036676;28;20806;-78
2021/06/27 01:11:28;;;;;;;10.27;8.70;;;16.70;99.90;;;;;;5036589;28;20450;-78
2021/06/27 01:13:55;;;;;;;10.90;8.60;;;16.70;99.90;;;;;;5036226;28;20807;-78
2021/06/27 01:16:22;;;;;;;10.93;9.23;;;16.60;99.90;;;;;;5036125;28;20455;-78
2021/06/27 01:18:53;;;;;;;9.57;8.57;;;16.60;99.90;;;;;;5036206;28;20435;-78
2021/06/27 01:21:22;;;;;;;12.73;10.00;;;16.50;99.90;;;;;;5036494;28;20774;-78
2021/06/27 01:23:48;;;;;;;12.30;10.20;;;16.50;99.90;;;;;;5036300;28;20490;-78
2021/06/27 01:26:15;;;;;;;11.00;9.67;;;16.50;99.90;;;;;;5036001;28;20823;-78
2021/06/27 01:28:42;;;;;;;10.83;8.70;;;16.50;99.90;;;;;;5036186;28;20473;-78
2021/06/27 01:31:09;;;;;;;10.10;8.70;;;16.50;99.90;;;;;;5036278;28;20450;-78
2021/06/27 01:33:37;;;;;;;11.87;8.60;;;16.50;99.90;;;;;;5036545;28;20446;-78
2021/06/27 01:36:04;;;;;;;9.67;8.67;;;16.50;99.90;;;;;;5035875;28;20442;-78
2021/06/27 01:38:35;;;;;;;10.47;9.47;;;16.60;99.90;;;;;;5035751;28;20997;-78
2021/06/27 01:41:02;;;;;;;9.10;8.20;;;16.60;99.90;;;;;;5035840;28;20838;-78
2021/06/27 01:43:29;;;;;;;11.67;9.33;;;16.60;99.90;;;;;;5035719;28;20481;-78
2021/06/27 01:45:58;;;;;;;9.83;8.83;;;16.60;99.90;;;;;;5035582;28;20490;-78
2021/06/27 01:48:26;;;;;;;10.10;8.43;;;16.60;99.90;;;;;;5035875;28;20478;-78
2021/06/27 01:50:55;;;;;;;10.67;8.90;;;16.50;99.90;;;;;;5035889;28;20462;-78
2021/06/27 01:53:24;;;;;;;9.83;8.83;;;16.50;99.90;;;;;;5035566;28;20817;-78
2021/06/27 01:56:04;;;;;;;9.60;8.60;;;16.50;99.90;;;;;;5035804;28;20450;-78
2021/06/27 01:58:31;;;;;;;10.73;9.57;;;16.50;99.90;;;;;;5035715;28;20532;-78
2021/06/27 02:00:58;;;;;;;11.03;8.97;;;16.40;99.90;;;;;;5035393;28;20854;-78
2021/06/27 02:03:25;;;;;;;9.77;8.70;;;16.40;99.90;;;;;;5035581;28;20482;-78
2021/06/27 02:05:52;;;;;;;11.07;8.90;;;16.40;99.90;;;;;;5035610;28;20451;-78
2021/06/27 02:08:18;;;;;;;10.27;9.17;;;16.40;99.90;;;;;;5034794;28;20463;-78
2021/06/27 02:10:45;;;;;;;12.60;10.07;;;16.30;99.90;;;;;;5035500;28;20461;-79
2021/06/27 02:13:14;;;;;;;11.77;9.63;;;16.30;99.90;;;;;;5035481;28;20811;-80
2021/06/27 02:15:41;;;;;;;15.83;10.87;;;16.30;99.90;;;;;;5035477;28;20435;-80
2021/06/27 02:18:22;;;;;;;12.57;10.33;;;16.30;99.90;;;;;;5035086;28;20958;-80
2021/06/27 02:20:49;;;;;;;12.93;11.00;;;16.30;99.90;;;;;;5035180;28;20414;-78
2021/06/27 02:23:16;;;;;;;13.40;11.17;;;16.20;99.90;;;;;;5034987;28;20482;-78
2021/06/27 02:25:43;;;;;;;18.30;11.27;;;16.20;99.90;;;;;;5034933;28;20962;-78
2021/06/27 02:28:10;;;;;;;13.23;10.77;;;16.20;99.90;;;;;;5035128;28;20473;-78
2021/06/27 02:30:38;;;;;;;13.77;11.13;;;16.20;99.90;;;;;;5035173;28;20450;-78
2021/06/27 02:33:06;;;;;;;14.17;11.30;;;16.20;99.90;;;;;;5035492;28;20451;-78
2021/06/27 02:35:33;;;;;;;13.27;10.03;;;16.20;99.90;;;;;;5035047;28;20478;-78
2021/06/27 02:38:00;;;;;;;12.83;10.83;;;16.10;99.90;;;;;;5034954;28;20502;-78
2021/06/27 02:40:26;;;;;;;13.10;10.33;;;16.10;99.90;;;;;;5034978;28;20462;-78
2021/06/27 02:42:53;;;;;;;12.47;10.60;;;16.10;99.90;;;;;;5034843;28;20457;-78
2021/06/27 02:45:21;;;;;;;15.30;11.27;;;16.10;99.90;;;;;;5034436;28;20466;-78
2021/06/27 02:47:49;;;;;;;13.97;10.87;;;16.00;99.90;;;;;;5034668;28;20521;-78
2021/06/27 02:50:17;;;;;;;14.77;10.97;;;16.00;99.90;;;;;;5034458;28;20952;-78
2021/06/27 02:52:44;;;;;;;12.97;10.40;;;16.00;99.90;;;;;;5034721;28;20454;-78
2021/06/27 02:55:13;;;;;;;12.40;9.77;;;16.00;99.90;;;;;;5034691;28;20443;-78
2021/06/27 02:57:41;;;;;;;14.73;11.43;;;16.00;99.90;;;;;;5034559;28;20471;-78
2021/06/27 03:00:10;;;;;;;13.50;10.50;;;16.00;99.90;;;;;;5034605;28;20446;-78
2021/06/27 03:02:37;;;;;;;13.87;10.73;;;16.00;99.90;;;;;;5034498;28;20454;-78
2021/06/27 03:05:07;;;;;;;12.80;10.30;;;16.00;99.90;;;;;;5034427;28;20847;-78
2021/06/27 03:07:34;;;;;;;13.77;10.70;;;16.00;99.90;;;;;;5035453;28;20462;-78
2021/06/27 03:10:01;;;;;;;14.40;10.37;;;16.00;99.90;;;;;;5034407;28;20447;-78
2021/06/27 03:12:28;;;;;;;14.00;10.73;;;16.00;99.90;;;;;;5034018;28;20906;-78
2021/06/27 03:14:54;;;;;;;13.60;11.07;;;16.00;99.90;;;;;;5034291;28;20447;-78
2021/06/27 03:17:21;;;;;;;13.40;10.80;;;16.10;99.90;;;;;;5034179;28;20466;-78
2021/06/27 03:19:48;;;;;;;12.43;10.43;;;16.10;99.90;;;;;;5033630;28;20938;-78
2021/06/27 03:22:16;;;;;;;13.60;10.43;;;16.10;99.90;;;;;;5034213;28;20443;-78
2021/06/27 03:24:43;;;;;;;13.07;9.53;;;16.10;99.90;;;;;;5034347;28;20478;-78
2021/06/27 03:27:10;;;;;;;12.87;10.17;;;16.00;99.90;;;;;;5034009;28;20463;-78
2021/06/27 03:29:37;;;;;;;14.13;11.00;;;16.00;99.90;;;;;;5034048;28;20447;-78
2021/06/27 03:32:04;;;;;;;10.57;9.47;;;16.00;99.90;;;;;;5034020;28;20446;-77
2021/06/27 03:34:30;;;;;;;12.60;10.43;;;16.00;99.90;;;;;;5033957;28;20438;-78
2021/06/27 03:36:57;;;;;;;13.23;11.10;;;16.00;99.90;;;;;;5033866;28;20470;-78
2021/06/27 03:39:25;;;;;;;12.60;9.93;;;16.00;99.90;;;;;;5033605;28;20972;-78
2021/06/27 03:41:53;;;;;;;13.47;10.00;;;16.00;99.90;;;;;;5033811;28;20469;-78
2021/06/27 03:44:20;;;;;;;12.43;10.30;;;16.00;99.90;;;;;;5033608;28;20880;-78
2021/06/27 03:46:47;;;;;;;11.67;9.70;;;16.00;99.90;;;;;;5033243;28;21072;-78
2021/06/27 03:49:14;;;;;;;11.00;9.30;;;16.10;99.90;;;;;;5033740;28;20446;-78
2021/06/27 03:51:41;;;;;;;13.00;10.10;;;16.10;99.90;;;;;;5033371;28;20450;-78
2021/06/27 03:54:08;;;;;;;10.73;9.60;;;16.10;99.90;;;;;;5033624;28;20499;-78
2021/06/27 03:56:36;;;;;;;11.23;10.07;;;16.20;99.90;;;;;;5033519;28;20442;-78
2021/06/27 03:59:03;;;;;;;8.70;7.80;;;16.20;99.90;;;;;;5033569;28;20455;-78
2021/06/27 04:01:30;;;;;;;8.60;7.10;;;16.20;99.90;;;;;;5033541;28;20453;-77
2021/06/27 04:03:57;;;;;;;7.43;6.73;;;16.30;99.90;;;;;;5033431;28;20613;-78
2021/06/27 04:06:24;;;;;;;6.30;5.80;;;16.40;99.90;;;;;;5034240;28;20470;-78
2021/06/27 04:08:51;;;;;;;5.70;5.20;;;16.50;99.90;;;;;;5033208;28;20431;-78
2021/06/27 04:11:18;;;;;;;6.23;5.67;;;16.60;99.90;;;;;;5033191;28;20445;-77
2021/06/27 04:13:46;;;;;;;5.83;5.33;;;16.60;99.90;;;;;;5033395;28;20446;-78
2021/06/27 04:16:14;;;;;;;7.30;5.77;;;16.70;99.90;;;;;;5033355;28;20451;-78
2021/06/27 04:18:41;;;;;;;7.07;6.10;;;16.70;99.90;;;;;;5033271;28;20837;-78
2021/06/27 04:21:08;;;;;;;6.23;5.50;;;16.80;99.90;;;;;;5033026;28;20442;-78
2021/06/27 04:23:39;;;;;;;6.30;5.60;;;16.80;99.90;;;;;;5032934;28;20534;-78
2021/06/27 04:26:06;;;;;;;6.43;5.60;;;16.90;99.90;;;;;;5033327;28;20434;-78
2021/06/27 04:28:32;;;;;;;7.93;7.13;;;16.90;99.90;;;;;;5032907;28;20455;-78
2021/06/27 04:31:00;;;;;;;7.27;6.30;;;16.80;99.90;;;;;;5033207;28;20457;-77
2021/06/27 04:33:27;;;;;;;8.80;6.87;;;16.90;99.90;;;;;;5036746;28;20454;-78
2021/06/27 04:35:54;;;;;;;8.67;6.13;;;16.90;99.90;;;;;;5037019;28;20957;-78
2021/06/27 04:38:23;;;;;;;8.50;7.50;;;16.90;99.90;;;;;;5037163;28;20470;-78
2021/06/27 04:40:50;;;;;;;10.90;8.50;;;16.90;99.90;;;;;;5037190;28;20457;-78
2021/06/27 04:43:17;;;;;;;10.60;8.87;;;16.90;99.90;;;;;;5036839;28;20453;-78
2021/06/27 04:45:45;;;;;;;10.50;9.40;;;16.90;99.90;;;;;;5036633;28;20498;-78
2021/06/27 04:48:13;;;;;;;10.80;9.70;;;16.90;99.90;;;;;;5036982;28;20836;-78
2021/06/27 04:50:40;;;;;;;9.73;8.73;;;16.90;99.90;;;;;;5037032;28;20450;-78
2021/06/27 04:53:10;;;;;;;9.33;8.33;;;16.90;99.90;;;;;;5037006;28;20446;-78
2021/06/27 04:55:37;;;;;;;13.23;11.10;;;16.90;99.90;;;;;;5036708;28;20423;-78
2021/06/27 04:58:04;;;;;;;10.43;9.07;;;16.90;99.90;;;;;;5036518;28;20986;-78
2021/06/27 05:00:31;;;;;;;12.97;10.07;;;16.90;99.90;;;;;;5036887;28;20450;-78
2021/06/27 05:03:00;;;;;;;10.60;8.67;;;16.90;99.90;;;;;;5036482;28;20787;-78
2021/06/27 05:05:28;;;;;;;9.13;8.20;;;16.90;99.90;;;;;;5036659;28;20489;-78
2021/06/27 05:07:55;;;;;;;8.53;7.40;;;17.00;99.90;;;;;;5036638;28;20471;-78
2021/06/27 05:10:22;;;;;;;8.87;7.60;;;17.00;99.90;;;;;;5036675;28;20815;-78
2021/06/27 05:12:49;;;;;;;11.73;8.73;;;17.10;99.90;;;;;;5036611;28;20454;-78
2021/06/27 05:15:16;;;;;;;9.20;8.23;;;17.20;99.90;;;;;;5036612;28;20442;-78
2021/06/27 05:17:43;;;;;;;11.57;9.83;;;17.20;99.90;;;;;;5036493;28;20474;-78
2021/06/27 05:20:10;;;;;;;10.67;9.57;;;17.20;99.90;;;;;;5036473;28;20442;-78
2021/06/27 05:22:38;;;;;;;10.97;8.73;;;17.20;99.90;;;;;;5036471;28;20447;-78
2021/06/27 05:25:06;;;;;;;10.40;9.30;;;17.30;99.90;;;;;;5036331;28;20477;-78
2021/06/27 05:27:33;;;;;;;10.40;9.20;;;17.30;99.90;;;;;;5035984;28;21014;-78
2021/06/27 05:30:00;;;;;;;10.83;9.60;;;17.40;99.90;;;;;;5036327;28;20468;-78
2021/06/27 05:32:27;;;;;;;10.37;8.90;;;17.40;99.90;;;;;;5036739;28;20775;-78
2021/06/27 05:34:53;;;;;;;10.57;9.50;;;17.50;99.90;;;;;;5036252;28;20442;-78
2021/06/27 05:37:20;;;;;;;9.93;8.93;;;17.50;99.90;;;;;;5036106;28;20471;-78
2021/06/27 05:39:48;;;;;;;10.13;8.50;;;17.60;99.90;;;;;;5035887;28;20439;-78
2021/06/27 05:42:18;;;;;;;7.40;6.70;;;17.60;99.90;;;;;;5035785;28;20453;-78
2021/06/27 05:44:44;;;;;;;8.10;6.77;;;17.70;99.90;;;;;;5035582;28;20481;-78
2021/06/27 05:47:11;;;;;;;7.70;7.00;;;17.80;99.90;;;;;;5035932;28;20466;-78
2021/06/27 05:49:38;;;;;;;7.47;6.07;;;17.90;99.90;;;;;;5035970;28;20521;-78
2021/06/27 05:52:05;;;;;;;6.10;5.60;;;18.10;99.90;;;;;;5035985;28;20454;-78
2021/06/27 05:54:32;;;;;;;5.83;5.33;;;18.20;99.90;;;;;;5035588;28;20442;-78
2021/06/27 05:57:00;;;;;;;6.73;5.93;;;18.30;99.90;;;;;;5035743;28;20466;-78
2021/06/27 05:59:26;;;;;;;6.63;6.03;;;18.40;99.90;;;;;;5035763;28;20469;-78
2021/06/27 06:01:53;;;;;;;5.97;5.37;;;18.50;99.90;;;;;;5035407;28;20973;-78
2021/06/27 06:04:20;;;;;;;8.73;7.83;;;18.50;99.90;;;;;;5035594;28;20486;-78
2021/06/27 06:06:47;;;;;;;7.80;6.93;;;18.70;99.90;;;;;;5035248;28;20466;-78
2021/06/27 06:09:13;;;;;;;7.43;6.77;;;18.70;99.90;;;;;;5035324;28;20446;-78
2021/06/27 06:11:40;;;;;;;7.27;6.43;;;18.80;99.90;;;;;;5035519;28;20454;-78
2021/06/27 06:14:08;;;;;;;7.37;6.53;;;18.90;99.90;;;;;;5035529;28;20447;-79
2021/06/27 06:16:35;;;;;;;6.30;5.70;;;19.00;99.90;;;;;;5035464;28;20450;-78
2021/06/27 06:19:02;;;;;;;5.10;4.67;;;19.20;99.90;;;;;;5035070;28;20815;-78
2021/06/27 06:21:29;;;;;;;5.30;4.83;;;19.30;99.90;;;;;;5035357;28;20454;-78
2021/06/27 06:23:55;;;;;;;4.53;4.13;;;19.60;99.90;;;;;;5034955;28;20809;-78
2021/06/27 06:26:22;;;;;;;4.37;4.07;;;19.90;99.90;;;;;;5035194;28;20487;-79
2021/06/27 06:28:49;;;;;;;4.80;4.40;;;20.10;99.90;;;;;;5035276;28;20461;-78
2021/06/27 06:31:17;;;;;;;5.17;4.77;;;20.30;99.90;;;;;;5035909;28;20464;-78
2021/06/27 06:33:44;;;;;;;4.50;4.10;;;20.50;99.90;;;;;;5035161;28;20473;-78
2021/06/27 06:36:10;;;;;;;4.37;3.97;;;20.70;99.90;;;;;;5034826;28;20964;-79
2021/06/27 06:38:37;;;;;;;4.10;3.80;;;21.00;99.90;;;;;;5034719;28;20454;-79
2021/06/27 06:41:04;;;;;;;4.70;4.30;;;21.20;99.90;;;;;;5034686;28;20446;-78
2021/06/27 06:43:31;;;;;;;4.70;4.30;;;21.20;99.90;;;;;;5034952;28;20441;-78
2021/06/27 06:45:58;;;;;;;4.93;4.53;;;21.20;99.90;;;;;;5034444;28;20544;-78
2021/06/27 06:48:26;;;;;;;4.17;3.87;;;21.10;99.90;;;;;;5034743;28;20477;-78
2021/06/27 06:50:53;;;;;;;4.83;4.40;;;21.00;99.90;;;;;;5034802;28;20452;-79
2021/06/27 06:53:20;;;;;;;4.70;4.30;;;21.10;99.90;;;;;;5034719;28;20449;-79
2021/06/27 06:55:47;;;;;;;4.70;4.30;;;21.20;99.90;;;;;;5033786;28;20824;-79
2021/06/27 06:58:14;;;;;;;5.10;4.70;;;21.50;99.90;;;;;;5034306;28;20474;-79
2021/06/27 07:00:41;;;;;;;3.93;3.63;;;21.60;99.90;;;;;;5034385;28;20446;-79
2021/06/27 07:03:09;;;;;;;6.50;4.40;;;21.70;99.90;;;;;;5034869;28;20446;-78
2021/06/27 07:05:37;;;;;;;4.00;3.70;;;22.00;99.90;;;;;;5034415;28;20477;-79
2021/06/27 07:08:04;;;;;;;5.57;5.17;;;22.20;99.90;;;;;;5034411;28;20980;-79
2021/06/27 07:10:31;;;;;;;4.57;4.27;;;22.20;99.90;;;;;;5034111;28;20866;-80
2021/06/27 07:12:58;;;;;;;3.80;3.60;;;22.30;99.90;;;;;;5034370;28;20446;-79
2021/06/27 07:15:25;;;;;;;4.10;3.80;;;22.50;99.90;;;;;;5034356;28;20418;-80
2021/06/27 07:17:51;;;;;;;4.40;4.10;;;22.60;99.90;;;;;;5033880;28;20824;-79
2021/06/27 07:20:18;;;;;;;4.60;4.20;;;22.70;99.90;;;;;;5033917;28;20195;-81
2021/06/27 07:22:46;;;;;;;4.90;4.57;;;22.90;99.90;;;;;;5034243;28;20426;-80
2021/06/27 07:25:14;;;;;;;4.10;3.80;;;23.00;99.90;;;;;;5034024;28;20470;-80
2021/06/27 07:27:41;;;;;;;4.17;3.87;;;23.10;99.90;;;;;;5033894;28;20466;-81
2021/06/27 07:30:09;;;;;;;4.20;3.90;;;23.10;99.90;;;;;;5033889;28;20556;-79
2021/06/27 07:32:36;;;;;;;5.07;4.67;;;23.30;99.90;;;;;;5034091;28;20418;-80
2021/06/27 07:35:05;;;;;;;4.53;4.13;;;23.50;99.90;;;;;;5034000;28;20188;-79
2021/06/27 07:37:32;;;;;;;4.47;4.15;;;23.80;99.90;;;;;;5033671;28;20699;-80
2021/06/27 07:40:00;;;;;;;4.63;4.32;;;24.00;99.90;;;;;;5033911;28;20215;-82
2021/06/27 07:42:27;;;;;;;4.85;4.47;;;24.20;99.90;;;;;;5033917;28;20198;-80
2021/06/27 07:44:54;;;;;;;4.22;3.95;;;24.50;99.90;;;;;;5033499;28;20231;-81
2021/06/27 07:47:20;;;;;;;4.25;4.05;;;24.70;99.90;;;;;;5033431;28;20222;-80
2021/06/27 07:49:47;;;;;;;4.38;4.07;;;24.80;99.90;;;;;;5034007;28;20203;-80
2021/06/27 07:52:14;;;;;;;4.25;3.90;;;25.20;99.90;;;;;;5033501;28;20273;-82
2021/06/27 07:54:41;;;;;;;3.75;3.55;;;25.40;99.90;;;;;;5033679;28;20203;-80
2021/06/27 07:57:09;;;;;;;5.82;3.83;;;25.60;99.90;;;;;;5033291;28;20224;-80
2021/06/27 07:59:36;;;;;;;6.40;4.32;;;25.70;99.90;;;;;;5033253;28;20581;-83
2021/06/27 08:02:03;;;;;;;5.10;4.72;;;25.70;99.90;;;;;;5033724;28;20203;-80
2021/06/27 08:04:30;;;;;;;4.88;4.47;;;25.90;99.90;;;;;;5033440;28;20214;-80
2021/06/27 08:06:57;;;;;;;4.22;3.90;;;26.30;99.90;;;;;;5032252;28;20717;-82
2021/06/27 08:09:23;;;;;;;4.28;3.97;;;26.50;99.90;;;;;;5033460;28;20202;-80
2021/06/27 08:11:50;;;;;;;3.90;3.70;;;26.90;99.90;;;;;;5033422;28;20210;-80
2021/06/27 08:14:18;;;;;;;4.50;4.20;;;27.30;99.90;;;;;;5033624;28;20207;-81
2021/06/27 08:16:45;;;;;;;3.85;3.65;;;28.00;99.90;;;;;;5033329;28;20221;-81
2021/06/27 08:19:12;;;;;;;3.72;3.53;;;28.80;99.90;;;;;;5033312;28;20210;-81
2021/06/27 08:21:39;;;;;;;4.88;4.47;;;29.40;99.30;;;;;;5033018;28;20200;-80
2021/06/27 08:24:06;;;;;;;4.00;3.80;;;29.60;96.70;;;;;;5033321;28;20291;-80
2021/06/27 08:26:33;;;;;;;4.55;4.20;;;29.90;97.20;;;;;;5033121;28;20223;-82
2021/06/27 08:29:00;;;;;;;3.92;3.72;;;29.60;93.30;;;;;;5033297;28;20207;-80
2021/06/27 08:31:28;;;;;;;4.03;3.92;;;29.30;93.70;;;;;;5033018;28;20203;-81
2021/06/27 08:33:55;;;;;;;4.05;3.75;;;29.10;94.70;;;;;;5033171;28;20238;-81
2021/06/27 08:36:22;;;;;;;3.75;3.55;;;28.80;93.70;;;;;;5033088;28;20257;-83
2021/06/27 08:38:49;;;;;;;3.20;3.10;;;28.50;93.10;;;;;;5032909;28;20196;-80
2021/06/27 08:41:17;;;;;;;3.25;3.08;;;28.30;94.30;;;;;;5033516;28;20210;-81
2021/06/27 08:43:45;;;;;;;3.25;3.05;;;28.10;94.40;;;;;;5032923;28;20201;-82
2021/06/27 08:46:14;;;;;;;3.58;3.38;;;28.00;97.40;;;;;;5032697;28;20240;-82
2021/06/27 08:48:44;;;;;;;3.60;3.47;;;28.20;94.90;;;;;;5032701;28;20230;-82
2021/06/27 08:51:12;;;;;;;3.97;3.67;;;28.00;94.70;;;;;;5033188;28;20283;-81
2021/06/27 08:53:41;;;;;;;3.67;3.47;;;27.90;93.40;;;;;;5033060;28;20205;-82
2021/06/27 08:56:08;;;;;;;3.20;3.10;;;27.60;94.40;;;;;;5032733;28;20200;-82
2021/06/27 08:58:36;;;;;;;4.07;3.83;;;27.40;96.00;;;;;;5032607;28;20784;-81
2021/06/27 09:01:05;;;;;;;3.30;3.10;;;27.50;95.00;;;;;;5032915;28;20207;-83
2021/06/27 09:03:32;;;;;;;3.63;3.42;;;27.40;94.80;;;;;;5032910;28;20204;-81
2021/06/27 09:06:01;;;;;;;3.65;3.35;;;27.40;94.40;;;;;;5032911;28;20219;-82
2021/06/27 09:08:28;;;;;;;3.75;3.50;;;27.40;95.10;;;;;;5032873;28;20224;-82
2021/06/27 09:10:54;;;;;;;2.90;2.80;;;27.50;94.50;;;;;;5032964;28;20184;-82
2021/06/27 09:13:37;;;;;;;3.10;3.00;;;27.40;94.30;;;;;;5032619;28;20635;-82
2021/06/27 09:16:18;;;;;;;3.08;2.92;;;27.40;94.00;;;;;;5032944;28;20563;-82
2021/06/27 09:18:44;;;;;;;3.20;3.00;;;27.40;92.60;;;;;;5034855;28;20223;-83
2021/06/27 09:21:13;;;;;;;3.10;3.00;;;27.50;91.60;;;;;;5036655;28;20191;-82
2021/06/27 09:23:41;;;;;;;3.60;3.40;;;27.50;92.60;;;;;;5036762;28;20199;-82
2021/06/27 09:26:09;;;;;;;3.40;3.20;;;27.60;92.20;;;;;;5036278;28;20230;-82
2021/06/27 09:28:44;;;;;;;2.97;2.88;;;27.60;93.30;;;;;;5036365;28;20234;-82
2021/06/27 09:31:11;;;;;;;3.15;3.05;;;27.70;92.10;;;;;;5036354;28;20202;-82
2021/06/27 09:33:38;;;;;;;2.60;2.50;;;27.70;92.40;;;;;;5036256;28;20643;-82
2021/06/27 09:36:06;;;;;;;3.50;3.30;;;27.90;90.90;;;;;;5036313;28;20298;-82
2021/06/27 09:38:38;;;;;;;2.83;2.72;;;27.90;91.00;;;;;;5036185;28;20234;-82
2021/06/27 09:41:12;;;;;;;2.78;2.67;;;28.20;91.90;;;;;;5036346;28;20195;-81
2021/06/27 09:43:40;;;;;;;2.63;2.53;;;28.40;90.60;;;;;;5035853;28;20725;-82
2021/06/27 09:46:12;;;;;;;3.47;3.30;;;28.70;89.50;;;;;;5035624;28;20246;-82
2021/06/27 09:48:54;;;;;;;3.40;3.20;;;29.00;88.60;;;;;;5036012;28;20227;-83
2021/06/27 09:51:22;;;;;;;5.38;3.70;;;29.20;84.00;;;;;;5036009;28;20202;-83
2021/06/27 09:53:51;;;;;;;3.13;2.92;;;29.30;86.50;;;;;;5036630;28;20191;-83
2021/06/27 09:56:20;;;;;;;3.13;3.03;;;29.40;85.30;;;;;;5036068;28;20218;-81
2021/06/27 09:58:59;;;;;;;2.42;2.33;;;29.50;79.70;;;;;;5038481;28;20199;-81
2021/06/27 10:01:27;;;;;;;3.03;2.75;;;29.30;80.40;;;;;;5035832;28;20195;-81
2021/06/27 10:03:57;;;;;;;2.80;2.60;;;29.10;82.00;;;;;;5035473;28;20634;-81
2021/06/27 10:06:26;;;;;;;2.40;2.30;;;29.00;85.00;;;;;;5035584;28;20215;-82
2021/06/27 10:08:55;;;;;;;2.65;2.55;;;28.80;82.60;;;;;;5035653;28;20212;-83
2021/06/27 10:11:24;;;;;;;2.95;2.78;;;28.80;81.50;;;;;;5035600;28;20196;-80
2021/06/27 10:13:52;;;;;;;2.83;2.63;;;28.50;82.10;;;;;;5035612;28;20189;-80
2021/06/27 10:16:28;;;;;;;3.00;2.80;;;28.20;84.40;;;;;;5035584;28;20188;-82
2021/06/27 10:18:55;;;;;;;3.00;2.80;;;28.10;85.30;;;;;;5035191;28;20179;-82
2021/06/27 10:21:22;;;;;;;2.38;2.28;;;28.30;83.50;;;;;;5035449;28;20644;-81
2021/06/27 10:23:50;;;;;;;2.08;1.98;;;28.40;83.60;;;;;;5035406;28;20187;-81
2021/06/27 10:26:24;;;;;;;2.72;2.63;;;28.50;81.00;;;;;;5035142;28;20214;-81
2021/06/27 10:28:55;;;;;;;2.03;1.92;;;28.90;82.20;;;;;;5035059;28;20211;-81
2021/06/27 10:31:25;;;;;;;2.60;2.50;;;29.10;81.40;;;;;;5035347;28;20276;-80
2021/06/27 10:33:53;;;;;;;3.30;3.17;;;29.20;79.30;;;;;;5034931;28;20280;-81
2021/06/27 10:36:31;;;;;;;2.40;2.30;;;29.30;79.90;;;;;;5034976;28;20550;-82
2021/06/27 10:39:00;;;;;;;3.05;2.85;;;29.20;77.70;;;;;;5035239;28;20241;-80
2021/06/27 10:41:59;;;;;;;2.55;2.45;;;28.90;76.80;;;;;;5034856;28;20176;-81
2021/06/27 10:44:27;;;;;;;2.28;2.17;;;28.70;80.10;;;;;;4979738;28;20207;-80
2021/06/27 10:46:57;;;;;;;2.05;1.95;;;28.60;78.20;;;;;;5035058;28;20222;-82
2021/06/27 10:50:02;;;;;;;3.72;3.50;;;28.70;74.20;;;;;;5034874;28;20298;-80
2021/06/27 10:52:29;;;;;;;2.20;2.10;;;28.90;73.60;;;;;;5034571;28;20227;-81
2021/06/27 10:55:21;;;;;;;2.40;2.30;;;29.20;73.60;;;;;;5035053;28;20207;-80
2021/06/27 10:58:01;;;;;;;2.35;2.25;;;29.30;75.50;;;;;;5034855;28;20312;-80
2021/06/27 11:00:49;;;;;;;3.17;3.08;;;29.30;73.90;;;;;;5035463;28;20699;-80
2021/06/27 11:03:24;;;;;;;3.08;2.90;;;29.20;72.30;;;;;;5034230;28;20207;-82
2021/06/27 11:05:56;;;;;;;2.42;2.33;;;29.70;72.20;;;;;;5035077;28;20211;-83
2021/06/27 11:08:42;;;;;;;2.78;2.58;;;29.80;73.20;;;;;;5037218;28;20227;-84
2021/06/27 11:11:12;;;;;;;2.33;2.22;;;30.20;69.80;;;;;;5035836;28;20190;-83
2021/06/27 11:13:42;;;;;;;3.58;2.20;;;30.00;71.70;;;;;;5036973;28;20196;-82
2021/06/27 11:16:21;;;;;;;2.13;2.03;;;29.80;71.70;;;;;;5035230;28;20184;-83
2021/06/27 11:18:51;;;;;;;2.75;2.45;;;29.70;69.50;;;;;;5034079;28;20203;-82
2021/06/27 11:21:38;;;;;;;2.38;2.28;;;29.20;71.00;;;;;;5034828;28;20193;-83
2021/06/27 11:24:08;;;;;;;2.58;2.38;;;29.00;71.10;;;;;;5035623;28;20243;-82
2021/06/27 11:27:05;;;;;;;3.13;2.92;;;29.10;71.00;;;;;;5036258;28;20662;-82
2021/06/27 11:29:47;;;;;;;2.30;2.20;;;28.90;71.30;;;;;;5033979;28;20211;-81
2021/06/27 11:32:48;;;;;;;2.08;1.98;;;28.70;74.10;;;;;;5034600;28;20279;-82
2021/06/27 11:35:45;;;;;;;2.15;2.05;;;28.60;75.10;;;;;;5034343;28;20203;-81
2021/06/27 11:38:38;;;;;;;2.47;2.38;;;28.50;73.70;;;;;;5034437;28;20227;-81
2021/06/27 11:41:07;;;;;;;2.53;2.33;;;28.60;74.30;;;;;;5034585;28;20234;-83
2021/06/27 11:43:59;;;;;;;2.25;2.15;;;28.60;72.00;;;;;;5033998;28;20195;-82
2021/06/27 11:46:38;;;;;;;1.80;1.70;;;28.40;70.10;;;;;;4980248;28;20232;-83
2021/06/27 11:49:07;;;;;;;2.47;2.38;;;28.10;69.00;;;;;;4994147;28;20189;-81
2021/06/27 11:51:35;;;;;;;2.08;1.98;;;27.90;68.20;;;;;;4994423;28;20201;-81
2021/06/27 11:54:02;;;;;;;2.83;2.72;;;27.80;68.70;;;;;;4994464;28;20192;-81
2021/06/27 11:56:29;;;;;;;3.85;1.58;;;27.70;70.60;;;;;;4994292;28;20207;-81
2021/06/27 11:59:10;;;;;;;1.75;1.65;;;27.80;73.00;;;;;;4995736;28;20205;-81
2021/06/27 12:01:38;;;;;;;2.20;2.10;;;27.80;73.10;;;;;;4994413;28;20201;-82
2021/06/27 12:04:05;;;;;;;2.13;2.03;;;27.80;72.00;;;;;;4994301;28;20208;-84
2021/06/27 12:06:35;;;;;;;2.10;2.00;;;28.00;72.20;;;;;;4994627;28;20232;-82
2021/06/27 12:09:03;;;;;;;2.10;2.00;;;28.00;73.30;;;;;;4994804;28;20209;-82
2021/06/27 12:11:30;;;;;;;2.10;2.00;;;28.10;73.20;;;;;;4994396;28;20661;-81
2021/06/27 12:13:57;;;;;;;2.33;2.22;;;27.80;70.60;;;;;;4994001;28;20201;-82
2021/06/27 12:16:31;;;;;;;1.80;1.70;;;27.70;74.20;;;;;;4995137;28;20295;-83
2021/06/27 12:18:59;;;;;;;1.73;1.63;;;27.70;71.20;;;;;;4994825;28;20193;-83
2021/06/27 12:21:27;;;;;;;2.95;2.35;;;27.70;71.50;;;;;;4994200;28;20201;-81
2021/06/27 12:23:58;;;;;;;2.03;1.92;;;27.60;73.30;;;;;;4995036;28;20204;-82
2021/06/27 12:26:25;;;;;;;1.95;1.85;;;27.50;72.20;;;;;;4993736;28;20221;-82
2021/06/27 12:28:54;;;;;;;1.67;1.58;;;27.40;69.10;;;;;;4993670;28;20673;-82
2021/06/27 12:31:22;;;;;;;1.45;1.45;;;27.30;68.30;;;;;;4993952;28;20209;-82
2021/06/27 12:33:51;;;;;;;1.85;1.75;;;27.20;74.00;;;;;;4993909;28;20205;-82
2021/06/27 12:36:30;;;;;;;2.33;2.20;;;27.10;73.00;;;;;;4993653;28;20181;-83
2021/06/27 12:39:01;;;;;;;1.50;1.50;;;27.00;70.30;;;;;;4993834;28;20553;-83
2021/06/27 12:41:30;;;;;;;1.42;1.33;;;27.10;68.10;;;;;;4993938;28;20216;-82
2021/06/27 12:43:58;;;;;;;1.50;1.40;;;27.10;69.00;;;;;;4993864;28;20757;-82
2021/06/27 12:46:30;;;;;;;1.30;1.30;;;27.00;65.00;;;;;;5025111;28;20243;-82
2021/06/27 12:49:10;;;;;;;1.63;1.52;;;27.00;63.90;;;;;;5033029;28;20573;-81
2021/06/27 12:51:40;;;;;;;1.83;1.73;;;27.00;64.00;;;;;;5033084;28;20195;-82